createdAt,value
2023-04-30T00:00:43.548Z,3.03
2023-04-30T00:03:11.254Z,3.30
2023-04-30T00:05:38.747Z,2.78
2023-04-30T00:08:06.100Z,3.00
2023-04-30T00:10:33.460Z,3.17
2023-04-30T00:13:03.323Z,3.10
2023-04-30T00:15:36.320Z,3.30
2023-04-30T00:18:07.239Z,3.28
2023-04-30T00:20:36.731Z,2.83
2023-04-30T00:23:06.182Z,3.30
2023-04-30T00:25:33.451Z,2.90
2023-04-30T00:28:00.753Z,3.10
2023-04-30T00:30:28.081Z,3.35
2023-04-30T00:32:55.306Z,3.20
2023-04-30T00:35:22.644Z,3.20
2023-04-30T00:37:50.281Z,2.90
2023-04-30T00:40:17.692Z,3.28
2023-04-30T00:42:45.010Z,3.25
2023-04-30T00:45:12.284Z,3.45
2023-04-30T00:47:39.607Z,3.10
2023-04-30T00:50:10.171Z,3.33
2023-04-30T00:52:37.478Z,3.10
2023-04-30T00:55:05.162Z,3.20
2023-04-30T00:57:36.104Z,3.20
2023-04-30T01:00:04.213Z,3.28
2023-04-30T01:02:34.020Z,3.30
2023-04-30T01:05:02.177Z,3.35
2023-04-30T01:07:32.713Z,3.25
2023-04-30T01:10:00.444Z,3.38
2023-04-30T01:13:04.045Z,3.80
2023-04-30T01:15:40.644Z,3.50
2023-04-30T01:18:15.213Z,3.22
2023-04-30T01:20:53.145Z,3.38
2023-04-30T01:23:34.090Z,3.60
2023-04-30T01:26:38.820Z,3.70
2023-04-30T01:29:07.073Z,3.80
2023-04-30T01:31:36.600Z,3.72
2023-04-30T01:34:04.606Z,3.35
2023-04-30T01:36:59.539Z,3.30
2023-04-30T01:39:47.682Z,3.75
2023-04-30T01:42:22.011Z,3.78
2023-04-30T01:45:04.314Z,3.70
2023-04-30T01:47:37.601Z,3.60
2023-04-30T01:50:28.358Z,4.30
2023-04-30T01:53:02.045Z,3.60
2023-04-30T01:55:46.387Z,3.20
2023-04-30T01:58:15.597Z,3.90
2023-04-30T02:00:46.298Z,3.40
2023-04-30T02:03:13.627Z,3.10
2023-04-30T02:05:40.991Z,3.33
2023-04-30T02:08:08.409Z,3.05
2023-04-30T02:10:38.160Z,3.22
2023-04-30T02:13:05.464Z,3.55
2023-04-30T02:15:34.839Z,3.38
2023-04-30T02:18:04.323Z,3.60
2023-04-30T02:20:31.617Z,3.40
2023-04-30T02:22:58.971Z,3.45
2023-04-30T02:25:26.351Z,3.75
2023-04-30T02:27:53.603Z,3.15
2023-04-30T02:30:21.244Z,3.30
2023-04-30T02:32:48.677Z,3.40
2023-04-30T02:35:16.032Z,3.47
2023-04-30T02:37:43.315Z,3.20
2023-04-30T02:40:13.847Z,3.70
2023-04-30T02:42:41.205Z,3.45
2023-04-30T02:45:08.886Z,3.83
2023-04-30T02:47:40.590Z,3.78
2023-04-30T02:50:08.363Z,4.20
2023-04-30T02:52:37.860Z,3.90
2023-04-30T02:55:05.464Z,3.90
2023-04-30T02:57:37.079Z,4.15
2023-04-30T03:02:37.058Z,4.05
2023-04-30T03:05:04.718Z,4.10
2023-04-30T03:07:31.988Z,4.60
2023-04-30T03:10:01.630Z,4.25
2023-04-30T03:12:28.912Z,4.60
2023-04-30T03:14:56.193Z,4.28
2023-04-30T03:17:25.974Z,4.10
2023-04-30T03:19:53.585Z,4.35
2023-04-30T03:22:23.761Z,4.18
2023-04-30T03:24:51.004Z,4.65
2023-04-30T03:27:20.980Z,4.53
2023-04-30T03:29:50.376Z,4.43
2023-04-30T03:32:17.689Z,4.95
2023-04-30T03:34:49.632Z,4.93
2023-04-30T03:37:19.351Z,4.70
2023-04-30T03:39:49.048Z,4.97
2023-04-30T03:42:23.181Z,4.90
2023-04-30T03:44:50.602Z,5.15
2023-04-30T03:47:18.000Z,4.80
2023-04-30T03:49:45.252Z,4.65
2023-04-30T03:52:12.458Z,4.60
2023-04-30T03:54:39.860Z,4.88
2023-04-30T03:57:07.977Z,5.20
2023-04-30T03:59:35.446Z,4.93
2023-04-30T04:02:05.134Z,4.60
2023-04-30T04:04:33.404Z,4.72
2023-04-30T04:07:03.829Z,4.75
2023-04-30T04:09:33.382Z,4.78
2023-04-30T04:12:03.258Z,4.95
2023-04-30T04:14:30.601Z,5.07
2023-04-30T04:17:00.805Z,5.43
2023-04-30T04:19:32.856Z,5.70
2023-04-30T04:22:00.164Z,5.72
2023-04-30T04:24:27.547Z,5.70
2023-04-30T04:26:55.358Z,6.30
2023-04-30T04:29:25.006Z,6.18
2023-04-30T04:31:52.412Z,6.20
2023-04-30T04:34:20.184Z,6.20
2023-04-30T04:36:47.793Z,6.32
2023-04-30T04:39:18.022Z,6.07
2023-04-30T04:41:45.398Z,5.38
2023-04-30T04:44:18.469Z,6.10
2023-04-30T04:46:45.863Z,6.18
2023-04-30T04:49:13.333Z,6.15
2023-04-30T04:51:40.618Z,5.68
2023-04-30T04:54:07.949Z,5.78
2023-04-30T04:56:35.212Z,5.93
2023-04-30T04:59:02.638Z,5.70
2023-04-30T05:01:29.978Z,6.03
2023-04-30T05:03:59.763Z,5.75
2023-04-30T05:06:27.255Z,5.85
2023-04-30T05:08:54.567Z,5.47
2023-04-30T05:11:24.293Z,5.38
2023-04-30T05:13:51.608Z,5.80
2023-04-30T05:16:19.034Z,5.43
2023-04-30T05:18:46.364Z,5.65
2023-04-30T05:21:16.148Z,5.40
2023-04-30T05:23:44.920Z,5.57
2023-04-30T05:26:12.306Z,6.20
2023-04-30T05:28:39.538Z,5.47
2023-04-30T05:31:06.981Z,5.75
2023-04-30T05:33:34.627Z,5.70
2023-04-30T05:36:01.885Z,6.13
2023-04-30T05:38:29.164Z,5.90
2023-04-30T05:41:01.247Z,5.93
2023-04-30T05:43:28.623Z,5.80
2023-04-30T05:45:55.966Z,5.93
2023-04-30T05:48:23.244Z,5.50
2023-04-30T05:50:50.526Z,5.93
2023-04-30T05:53:17.903Z,5.47
2023-04-30T05:55:45.463Z,6.85
2023-04-30T05:58:12.711Z,6.80
2023-04-30T06:00:40.005Z,5.53
2023-04-30T06:03:07.935Z,5.47
2023-04-30T06:05:35.752Z,5.93
2023-04-30T06:08:03.121Z,5.20
2023-04-30T06:10:31.053Z,5.30
2023-04-30T06:12:58.405Z,5.43
2023-04-30T06:15:25.695Z,5.70
2023-04-30T06:17:55.876Z,5.55
2023-04-30T06:20:23.209Z,5.40
2023-04-30T06:22:50.510Z,5.35
2023-04-30T06:25:17.857Z,5.72
2023-04-30T06:27:45.084Z,5.25
2023-04-30T06:30:13.052Z,5.60
2023-04-30T06:32:41.462Z,6.28
2023-04-30T06:35:09.336Z,5.35
2023-04-30T06:37:38.962Z,6.18
2023-04-30T06:40:07.355Z,5.22
2023-04-30T06:42:35.356Z,5.85
2023-04-30T06:45:03.099Z,5.90
2023-04-30T06:47:38.696Z,6.50
2023-04-30T06:50:06.727Z,6.72
2023-04-30T06:52:36.393Z,7.00
2023-04-30T06:55:06.803Z,6.80
2023-04-30T06:57:34.065Z,6.72
2023-04-30T07:00:02.289Z,7.10
2023-04-30T07:02:29.590Z,7.00
2023-04-30T07:05:01.475Z,6.93
2023-04-30T07:07:29.014Z,6.85
2023-04-30T07:09:58.726Z,6.82
2023-04-30T07:12:26.091Z,6.38
2023-04-30T07:14:55.635Z,6.88
2023-04-30T07:17:23.265Z,7.05
2023-04-30T07:19:51.414Z,6.82
2023-04-30T07:22:21.001Z,7.40
2023-04-30T07:24:50.696Z,7.13
2023-04-30T07:27:20.053Z,6.47
2023-04-30T07:29:47.259Z,7.47
2023-04-30T07:32:15.526Z,6.82
2023-04-30T07:34:42.982Z,6.85
2023-04-30T07:37:12.502Z,6.43
2023-04-30T07:39:42.421Z,6.65
2023-04-30T07:42:09.699Z,7.05
2023-04-30T07:44:39.743Z,6.80
2023-04-30T07:47:07.407Z,6.85
2023-04-30T07:49:34.648Z,6.50
2023-04-30T07:52:04.276Z,6.13
2023-04-30T07:54:31.716Z,5.88
2023-04-30T07:56:58.963Z,6.45
2023-04-30T07:59:28.672Z,6.97
2023-04-30T08:01:56.149Z,7.20
2023-04-30T08:04:25.875Z,6.30
2023-04-30T08:06:53.440Z,6.10
2023-04-30T08:09:20.846Z,5.95
2023-04-30T08:11:50.683Z,5.97
2023-04-30T08:14:17.958Z,5.80
2023-04-30T08:16:49.874Z,6.05
2023-04-30T08:19:19.707Z,6.45
2023-04-30T08:21:49.560Z,6.20
2023-04-30T08:24:19.844Z,6.13
2023-04-30T08:26:49.476Z,5.90
2023-04-30T08:29:16.721Z,6.03
2023-04-30T08:31:49.492Z,6.45
2023-04-30T08:34:16.915Z,6.28
2023-04-30T08:36:47.404Z,6.30
2023-04-30T08:39:14.637Z,5.57
2023-04-30T08:41:46.661Z,5.80
2023-04-30T08:44:14.398Z,5.35
2023-04-30T08:46:42.389Z,5.05
2023-04-30T08:49:10.513Z,6.20
2023-04-30T08:51:38.001Z,6.57
2023-04-30T08:54:06.100Z,5.35
2023-04-30T08:56:35.147Z,5.93
2023-04-30T08:59:05.166Z,6.03
2023-04-30T09:01:32.481Z,6.22
2023-04-30T09:04:03.340Z,5.85
2023-04-30T09:06:31.614Z,5.97
2023-04-30T09:09:17.330Z,5.25
2023-04-30T09:11:44.630Z,5.20
2023-04-30T09:14:12.821Z,5.53
2023-04-30T09:16:48.987Z,6.13
2023-04-30T09:19:30.025Z,5.35
2023-04-30T09:21:57.942Z,5.72
2023-04-30T09:24:25.349Z,6.00
2023-04-30T09:26:53.925Z,5.88
2023-04-30T09:29:23.338Z,5.80
2023-04-30T09:31:50.982Z,5.50
2023-04-30T09:34:18.331Z,5.93
2023-04-30T09:36:57.856Z,5.32
2023-04-30T09:39:25.333Z,5.40
2023-04-30T09:41:52.670Z,5.18
2023-04-30T09:44:40.787Z,5.20
2023-04-30T09:47:16.242Z,5.38
2023-04-30T09:49:45.118Z,5.32
2023-04-30T09:52:12.793Z,5.10
2023-04-30T09:54:41.200Z,4.85
2023-04-30T09:57:11.263Z,5.32
2023-04-30T09:59:39.871Z,5.20
2023-04-30T10:02:08.859Z,5.20
2023-04-30T10:04:38.564Z,5.10
2023-04-30T10:07:24.592Z,5.30
2023-04-30T10:10:01.298Z,5.60
2023-04-30T10:12:51.126Z,6.45
2023-04-30T10:15:26.867Z,5.75
2023-04-30T10:17:59.993Z,5.25
2023-04-30T10:20:28.071Z,4.57
2023-04-30T10:22:56.201Z,4.63
2023-04-30T10:25:24.107Z,4.75
2023-04-30T10:27:54.540Z,4.63
2023-04-30T10:30:31.883Z,4.40
2023-04-30T10:33:23.006Z,4.93
2023-04-30T10:35:59.375Z,5.05
2023-04-30T10:38:29.821Z,4.90
2023-04-30T10:40:58.783Z,4.75
2023-04-30T10:43:31.212Z,4.35
2023-04-30T10:45:59.131Z,5.30
2023-04-30T10:48:31.231Z,5.10
2023-04-30T10:50:59.564Z,4.97
2023-04-30T10:53:30.344Z,6.82
2023-04-30T10:56:00.752Z,5.57
2023-04-30T10:58:31.597Z,5.82
2023-04-30T11:01:10.736Z,5.43
2023-04-30T11:03:40.322Z,4.93
2023-04-30T11:06:20.117Z,4.72
2023-04-30T11:08:49.979Z,4.22
2023-04-30T11:11:21.341Z,4.65
2023-04-30T11:14:03.883Z,4.57
2023-04-30T11:16:34.759Z,4.28
2023-04-30T11:19:13.335Z,4.53
2023-04-30T11:22:05.690Z,4.20
2023-04-30T11:24:52.681Z,4.13
2023-04-30T11:27:24.564Z,4.95
2023-04-30T11:29:56.190Z,4.20
2023-04-30T11:32:31.900Z,4.55
2023-04-30T11:35:02.217Z,4.60
2023-04-30T11:37:34.247Z,4.40
2023-04-30T11:40:13.480Z,4.20
2023-04-30T11:42:48.355Z,3.85
2023-04-30T11:45:17.949Z,3.78
2023-04-30T11:47:46.803Z,3.92
2023-04-30T11:50:27.467Z,4.13
2023-04-30T11:52:56.705Z,3.73
2023-04-30T11:55:27.854Z,3.90
2023-04-30T11:57:59.934Z,3.33
2023-04-30T12:00:29.374Z,3.65
2023-04-30T12:03:00.580Z,3.80
2023-04-30T12:05:30.522Z,3.92
2023-04-30T12:08:01.024Z,3.92
2023-04-30T12:10:28.318Z,4.03
2023-04-30T12:12:56.110Z,4.25
2023-04-30T12:15:27.358Z,4.20
2023-04-30T12:20:32.109Z,3.95
2023-04-30T12:22:59.863Z,4.15
2023-04-30T12:25:29.460Z,3.55
2023-04-30T12:27:59.935Z,3.95
2023-04-30T12:30:30.473Z,3.45
2023-04-30T12:32:59.012Z,3.50
2023-04-30T12:35:29.509Z,3.50
2023-04-30T12:38:08.279Z,3.40
2023-04-30T12:40:38.178Z,2.95
2023-04-30T12:43:10.415Z,2.60
2023-04-30T12:45:58.685Z,2.63
2023-04-30T12:48:28.686Z,2.58
2023-04-30T12:50:56.867Z,2.70
2023-04-30T12:53:24.529Z,2.60
2023-04-30T12:56:15.285Z,3.00
2023-04-30T12:58:49.706Z,3.40
2023-04-30T13:01:21.901Z,2.92
2023-04-30T13:03:49.393Z,2.80
2023-04-30T13:06:16.984Z,3.25
2023-04-30T13:08:58.654Z,3.20
2023-04-30T13:11:29.285Z,3.20
2023-04-30T13:13:58.967Z,2.83
2023-04-30T13:16:26.638Z,2.75
2023-04-30T13:18:57.004Z,3.30
2023-04-30T13:21:25.073Z,3.05
2023-04-30T13:23:54.538Z,2.58
2023-04-30T13:26:26.400Z,2.90
2023-04-30T13:28:56.063Z,2.80
2023-04-30T13:31:23.802Z,2.55
2023-04-30T13:33:51.161Z,2.78
2023-04-30T13:36:18.473Z,2.85
2023-04-30T13:38:48.215Z,2.70
2023-04-30T13:41:15.523Z,2.70
2023-04-30T13:43:46.466Z,2.83
2023-04-30T13:46:13.769Z,3.22
2023-04-30T13:48:43.793Z,3.45
2023-04-30T13:51:11.009Z,3.08
2023-04-30T13:53:38.257Z,3.08
2023-04-30T13:56:06.750Z,3.10
2023-04-30T13:58:36.283Z,3.17
2023-04-30T14:01:03.696Z,2.85
2023-04-30T14:03:33.778Z,3.05
2023-04-30T14:06:06.667Z,2.63
2023-04-30T14:08:33.991Z,2.55
2023-04-30T14:11:01.687Z,2.47
2023-04-30T14:13:29.589Z,2.50
2023-04-30T14:15:57.091Z,2.63
2023-04-30T14:18:24.444Z,2.63
2023-04-30T14:20:53.985Z,2.40
2023-04-30T14:23:21.246Z,2.45
2023-04-30T14:25:48.714Z,2.55
2023-04-30T14:28:15.971Z,2.20
2023-04-30T14:30:43.751Z,2.35
2023-04-30T14:33:12.553Z,2.08
2023-04-30T14:35:40.355Z,1.88
2023-04-30T14:38:07.589Z,1.65
2023-04-30T14:40:35.616Z,1.70
2023-04-30T14:43:02.831Z,1.73
2023-04-30T14:45:30.555Z,1.80
2023-04-30T14:48:00.660Z,1.90
2023-04-30T14:50:31.568Z,1.60
2023-04-30T14:52:58.845Z,2.10
2023-04-30T14:55:26.180Z,1.98
2023-04-30T14:57:53.661Z,1.90
2023-04-30T15:00:21.113Z,1.85
2023-04-30T15:02:48.678Z,1.50
2023-04-30T15:05:18.525Z,1.70
2023-04-30T15:07:47.893Z,1.80
2023-04-30T15:10:15.364Z,1.92
2023-04-30T15:12:42.679Z,1.88
2023-04-30T15:15:10.400Z,2.05
2023-04-30T15:17:37.923Z,1.60
2023-04-30T15:20:08.954Z,1.65
2023-04-30T15:22:36.264Z,1.83
2023-04-30T15:25:03.962Z,1.70
2023-04-30T15:27:33.176Z,1.90
2023-04-30T15:30:03.573Z,1.42
2023-04-30T15:32:31.403Z,1.42
2023-04-30T15:34:58.678Z,1.77
2023-04-30T15:37:26.185Z,1.75
2023-04-30T15:39:57.926Z,1.67
2023-04-30T15:42:27.638Z,1.83
2023-04-30T15:44:55.485Z,1.73
2023-04-30T15:47:24.070Z,1.63
2023-04-30T15:49:53.901Z,1.77
2023-04-30T15:52:21.266Z,1.90
2023-04-30T15:54:51.270Z,1.67
2023-04-30T15:57:21.700Z,1.60
2023-04-30T15:59:49.049Z,1.75
2023-04-30T16:02:18.500Z,1.73
2023-04-30T16:04:47.976Z,1.40
2023-04-30T16:07:18.302Z,1.60
2023-04-30T16:09:49.082Z,1.88
2023-04-30T16:12:16.550Z,1.70
2023-04-30T16:14:43.820Z,1.85
2023-04-30T16:17:13.336Z,1.60
2023-04-30T16:19:41.254Z,1.50
2023-04-30T16:22:10.747Z,1.90
2023-04-30T16:24:38.100Z,1.90
2023-04-30T16:27:05.400Z,1.50
2023-04-30T16:29:32.611Z,1.80
2023-04-30T16:32:02.544Z,2.17
2023-04-30T16:34:32.071Z,1.73
2023-04-30T16:36:59.398Z,1.88
2023-04-30T16:39:26.670Z,1.70
2023-04-30T16:41:54.278Z,1.77
2023-04-30T16:44:22.744Z,1.60
2023-04-30T16:46:53.377Z,1.70
2023-04-30T16:49:23.078Z,1.70
2023-04-30T16:51:51.093Z,1.73
2023-04-30T16:54:18.877Z,1.80
2023-04-30T16:56:48.668Z,1.90
2023-04-30T16:59:18.422Z,1.90
2023-04-30T17:01:47.992Z,1.60
2023-04-30T17:04:15.301Z,1.77
2023-04-30T17:06:42.711Z,1.92
2023-04-30T17:09:10.034Z,2.40
2023-04-30T17:11:37.316Z,1.92
2023-04-30T17:14:04.726Z,1.92
2023-04-30T17:16:32.302Z,1.73
2023-04-30T17:19:01.796Z,2.05
2023-04-30T17:21:29.825Z,1.70
2023-04-30T17:23:57.112Z,1.70
2023-04-30T17:26:25.061Z,1.80
2023-04-30T17:28:52.309Z,2.00
2023-04-30T17:31:19.860Z,1.90
2023-04-30T17:33:47.277Z,1.73
2023-04-30T17:36:14.584Z,1.80
2023-04-30T17:38:42.197Z,1.58
2023-04-30T17:41:12.273Z,1.83
2023-04-30T17:43:39.627Z,1.80
2023-04-30T17:46:06.892Z,1.63
2023-04-30T17:48:38.808Z,1.75
2023-04-30T17:51:06.659Z,2.10
2023-04-30T17:53:33.915Z,1.80
2023-04-30T17:56:01.422Z,1.85
2023-04-30T17:58:31.149Z,1.80
2023-04-30T18:01:03.697Z,1.73
2023-04-30T18:03:33.579Z,2.10
2023-04-30T18:06:00.871Z,2.22
2023-04-30T18:08:30.818Z,2.20
2023-04-30T18:10:58.196Z,2.40
2023-04-30T18:13:27.931Z,2.40
2023-04-30T18:15:55.626Z,2.28
2023-04-30T18:18:25.291Z,2.20
2023-04-30T18:20:53.128Z,2.30
2023-04-30T18:23:22.808Z,2.70
2023-04-30T18:25:50.038Z,2.15
2023-04-30T18:28:19.732Z,2.78
2023-04-30T18:30:47.098Z,2.30
2023-04-30T18:33:14.660Z,2.30
2023-04-30T18:35:42.010Z,2.70
2023-04-30T18:38:09.270Z,2.80
2023-04-30T18:40:39.148Z,3.20
2023-04-30T18:43:06.380Z,2.72
2023-04-30T18:45:33.769Z,2.83
2023-04-30T18:48:05.976Z,2.60
2023-04-30T18:50:35.771Z,2.55
2023-04-30T18:53:07.766Z,2.45
2023-04-30T18:55:35.149Z,2.60
2023-04-30T18:58:02.533Z,2.47
2023-04-30T19:00:29.884Z,2.97
2023-04-30T19:02:57.298Z,3.03
2023-04-30T19:05:24.640Z,2.92
2023-04-30T19:07:54.376Z,2.75
2023-04-30T19:10:23.877Z,2.80
2023-04-30T19:12:51.146Z,2.53
2023-04-30T19:15:18.807Z,2.85
2023-04-30T19:17:46.344Z,3.15
2023-04-30T19:20:13.722Z,3.20
2023-04-30T19:22:41.904Z,2.70
2023-04-30T19:25:12.104Z,3.22
2023-04-30T19:27:39.818Z,3.13
2023-04-30T19:30:10.065Z,3.00
2023-04-30T19:32:37.452Z,3.03
2023-04-30T19:35:05.094Z,3.55
2023-04-30T19:37:32.355Z,3.25
2023-04-30T19:39:59.789Z,3.35
2023-04-30T19:42:30.503Z,3.35
2023-04-30T19:45:00.209Z,3.28
2023-04-30T19:47:27.685Z,3.30
2023-04-30T19:49:55.257Z,3.58
2023-04-30T19:52:22.711Z,3.70
2023-04-30T19:54:50.303Z,3.88
2023-04-30T19:57:18.686Z,3.67
2023-04-30T19:59:47.271Z,3.60
2023-04-30T20:02:16.955Z,3.78
2023-04-30T20:04:49.503Z,3.95
2023-04-30T20:07:16.790Z,3.75
2023-04-30T20:09:45.856Z,3.55
2023-04-30T20:12:13.296Z,3.97
2023-04-30T20:14:40.906Z,4.03
2023-04-30T20:17:08.274Z,4.28
2023-04-30T20:19:35.508Z,3.88
2023-04-30T20:22:03.683Z,3.85
2023-04-30T20:24:33.480Z,3.55
2023-04-30T20:27:01.057Z,3.92
2023-04-30T20:29:30.974Z,4.30
2023-04-30T20:31:58.410Z,4.03
2023-04-30T20:34:27.994Z,4.50
2023-04-30T20:36:55.241Z,3.85
2023-04-30T20:39:24.722Z,4.07
2023-04-30T20:41:54.390Z,4.50
2023-04-30T20:44:24.101Z,6.38
2023-04-30T20:46:53.928Z,6.40
2023-04-30T20:49:21.268Z,6.20
2023-04-30T20:51:48.612Z,5.32
2023-04-30T20:54:15.916Z,4.75
2023-04-30T20:56:45.297Z,4.80
2023-04-30T20:59:17.688Z,4.60
2023-04-30T21:01:45.382Z,4.68
2023-04-30T21:04:12.726Z,4.75
2023-04-30T21:06:42.466Z,4.28
2023-04-30T21:09:10.620Z,4.90
2023-04-30T21:11:39.085Z,4.80
2023-04-30T21:14:08.895Z,4.82
2023-04-30T21:16:36.523Z,4.88
2023-04-30T21:19:06.446Z,4.10
2023-04-30T21:21:36.317Z,4.28
2023-04-30T21:24:05.128Z,4.35
2023-04-30T21:26:32.627Z,4.60
2023-04-30T21:29:01.921Z,4.65
2023-04-30T21:31:29.503Z,4.10
2023-04-30T21:33:56.862Z,4.50
2023-04-30T21:36:28.101Z,4.30
2023-04-30T21:38:58.060Z,4.28
2023-04-30T21:41:25.350Z,4.20
2023-04-30T21:43:52.576Z,5.10
2023-04-30T21:46:19.991Z,5.00
2023-04-30T21:48:50.125Z,4.80
2023-04-30T21:51:17.696Z,5.90
2023-04-30T21:53:45.675Z,6.45
2023-04-30T21:56:13.183Z,6.55
2023-04-30T21:58:40.461Z,6.38
2023-04-30T22:01:08.102Z,6.13
2023-04-30T22:03:35.711Z,5.90
2023-04-30T22:06:03.320Z,5.55
2023-04-30T22:08:30.644Z,5.32
2023-04-30T22:11:01.925Z,6.05
2023-04-30T22:13:32.139Z,6.05
2023-04-30T22:16:02.114Z,5.60
2023-04-30T22:18:29.426Z,5.57
2023-04-30T22:20:56.985Z,5.88
2023-04-30T22:23:26.467Z,5.68
2023-04-30T22:25:53.709Z,5.55
2023-04-30T22:28:22.397Z,5.65
2023-04-30T22:30:49.808Z,6.07
2023-04-30T22:33:17.133Z,5.85
2023-04-30T22:35:44.611Z,6.32
2023-04-30T22:38:12.141Z,4.97
2023-04-30T22:40:39.757Z,5.60
2023-04-30T22:43:07.448Z,6.20
2023-04-30T22:45:38.335Z,5.97
2023-04-30T22:48:09.763Z,6.10
2023-04-30T22:50:39.762Z,6.43
2023-04-30T22:53:07.355Z,6.20
2023-04-30T22:55:35.979Z,5.93
2023-04-30T22:58:03.299Z,5.63
2023-04-30T23:00:35.124Z,5.68
2023-04-30T23:03:05.068Z,5.68
2023-04-30T23:05:32.522Z,5.47
2023-04-30T23:08:02.244Z,6.05
2023-04-30T23:10:29.763Z,5.40
2023-04-30T23:12:58.714Z,5.55
2023-04-30T23:15:28.297Z,5.13
2023-04-30T23:17:56.786Z,5.53
2023-04-30T23:20:24.164Z,5.18
2023-04-30T23:22:51.684Z,5.45
2023-04-30T23:25:21.409Z,5.28
2023-04-30T23:27:48.659Z,5.30
2023-04-30T23:30:15.962Z,5.30
2023-04-30T23:32:43.283Z,5.20
2023-04-30T23:35:10.582Z,5.22
2023-04-30T23:37:40.234Z,5.10
2023-04-30T23:40:10.837Z,5.13
2023-04-30T23:42:40.837Z,5.00
2023-04-30T23:45:08.873Z,5.30
2023-04-30T23:47:36.762Z,5.15
2023-04-30T23:50:04.673Z,5.05
2023-04-30T23:52:32.081Z,4.60
2023-04-30T23:54:59.905Z,5.30
2023-04-30T23:57:28.116Z,5.00
2023-04-30T23:59:56.035Z,5.40
